.
WxDataArchive / Data Records for 2010-02-08
2010-02-07 February 2010 2010-02-09

Data Records for Monday, 08 February 2010

Time	Temp	Chill	HIndex	Humid	Dewpt	 Wind 	HiWind	WindDir	Rain 	Barom 
-----	----	-----	------	-----	-----	------	------	-------	-----	----- 
00:00	11.1	11.1	11.1	85	7.5	0	0	---	0.00	30.226 
00:05	10.9	10.9	10.9	86	7.6	0	0	---	0.00	30.226 
00:10	10.9	10.9	10.9	85	7.3	0	0	---	0.00	30.226 
00:15	10.5	10.5	10.5	85	6.9	0	0	---	0.00	30.224 
00:20	10.5	10.5	10.5	86	7.2	0	0	---	0.00	30.224 
00:25	10.4	10.4	10.4	86	7.1	0	0	---	0.00	30.224 
00:30	10.2	10.2	10.2	86	6.9	0	0	---	0.00	30.226 
00:35	10.2	10.2	10.2	86	6.9	0	0	---	0.00	30.226 
00:40	10.2	10.2	10.2	86	6.9	0	0	---	0.00	30.226 
00:45	10.2	10.2	10.2	86	6.9	0	0	---	0.00	30.233 
00:50	10.0	10.0	10.0	86	6.7	0	0	---	0.00	30.233 
00:55	10.0	10.0	10.0	86	6.7	0	0	---	0.00	30.233 
01:00	9.9	9.9	9.9	86	6.6	0	0	---	0.00	30.234 
01:05	9.7	9.7	9.7	86	6.4	0	0	---	0.00	30.234 
01:10	9.5	9.5	9.5	85	5.9	0	0	---	0.00	30.234 
01:15	9.3	9.3	9.3	85	5.7	0	0	---	0.00	30.238 
01:20	9.2	9.2	9.2	85	5.6	0	0	---	0.00	30.238 
01:25	9.2	9.2	9.2	85	5.6	0	0	---	0.00	30.238 
01:30	9.0	9.0	9.0	85	5.4	0	0	---	0.00	30.238 
01:35	9.0	9.0	9.0	85	5.4	0	0	---	0.00	30.238 
01:40	8.8	8.8	8.8	85	5.2	0	0	---	0.00	30.238 
01:45	8.8	8.8	8.8	85	5.2	0	0	---	0.00	30.242 
01:50	8.6	8.6	8.6	85	5.0	0	0	---	0.00	30.242 
01:55	8.6	8.6	8.6	85	5.0	0	0	---	0.00	30.242 
02:00	8.6	8.6	8.6	85	5.0	0	0	---	0.00	30.243 
02:05	8.6	8.6	8.6	85	5.0	0	0	---	0.00	30.243 
02:10	8.4	8.4	8.4	85	4.8	0	0	---	0.00	30.243 
02:15	8.3	8.3	8.3	85	4.7	0	0	---	0.00	30.242 
02:20	8.1	8.1	8.1	85	4.5	0	0	---	0.00	30.242 
02:25	7.9	7.9	7.9	85	4.3	0	0	---	0.00	30.242 
02:30	7.9	7.9	7.9	85	4.3	0	0	---	0.00	30.244 
02:35	7.9	7.9	7.9	85	4.3	0	0	---	0.00	30.244 
02:40	7.7	7.7	7.7	85	4.2	0	0	---	0.00	30.244 
02:45	7.6	7.6	7.6	85	4.1	0	0	---	0.00	30.244 
02:50	7.6	7.6	7.6	85	4.1	0	0	---	0.00	30.244 
02:55	7.6	7.6	7.6	85	4.1	0	0	---	0.00	30.244 
03:00	7.6	7.6	7.6	85	4.1	0	0	---	0.00	30.252 
03:05	7.4	7.4	7.4	84	3.6	0	0	---	0.00	30.252 
03:10	7.4	7.4	7.4	84	3.6	0	0	---	0.00	30.252 
03:15	7.2	7.2	7.2	84	3.4	0	0	---	0.00	30.255 
03:20	7.2	7.2	7.2	84	3.4	0	0	---	0.00	30.255 
03:25	7.0	7.0	7.0	84	3.2	0	0	---	0.00	30.255 
03:30	7.0	7.0	7.0	84	3.2	0	0	---	0.00	30.253 
03:35	7.0	7.0	7.0	84	3.2	0	0	---	0.00	30.253 
03:40	7.0	7.0	7.0	84	3.2	0	0	---	0.00	30.253 
03:45	7.0	7.0	7.0	84	3.2	0	0	---	0.00	30.245 
03:50	6.9	6.9	6.9	84	3.1	0	0	---	0.00	30.245 
03:55	6.9	6.9	6.9	84	3.1	0	0	---	0.00	30.245 
04:00	6.9	6.9	6.9	84	3.1	0	0	---	0.00	30.247 
04:05	6.9	6.9	6.9	84	3.1	0	0	---	0.00	30.247 
04:10	6.9	6.9	6.9	84	3.1	0	0	---	0.00	30.247 
04:15	6.7	6.7	6.7	84	2.9	0	0	---	0.00	30.244 
04:20	6.5	6.5	6.5	84	2.7	0	0	---	0.00	30.244 
04:25	6.3	6.3	6.3	84	2.5	0	0	---	0.00	30.244 
04:30	6.5	6.5	6.5	84	2.7	0	0	---	0.00	30.246 
04:35	6.3	6.3	6.3	84	2.5	0	0	---	0.00	30.246 
04:40	6.3	6.3	6.3	84	2.5	0	0	---	0.00	30.246 
04:45	6.3	6.3	6.3	84	2.5	0	0	---	0.00	30.252 
04:50	6.3	6.3	6.3	84	2.5	0	0	---	0.00	30.252 
04:55	6.1	6.1	6.1	84	2.3	0	0	---	0.00	30.252 
05:00	6.0	6.0	6.0	84	2.2	0	0	---	0.00	30.247 
05:05	5.8	5.8	5.8	83	1.8	0	0	---	0.00	30.247 
05:10	5.8	5.8	5.8	83	1.8	0	0	---	0.00	30.247 
05:15	5.6	5.6	5.6	83	1.6	0	0	---	0.00	30.248 
05:20	5.6	5.6	5.6	83	1.6	0	0	---	0.00	30.248 
05:25	5.4	5.4	5.4	83	1.4	0	0	---	0.00	30.248 
05:30	5.4	5.4	5.4	83	1.4	0	0	---	0.00	30.248 
05:35	5.4	5.4	5.4	83	1.4	0	0	---	0.00	30.248 
05:40	5.4	5.4	5.4	83	1.4	0	0	---	0.00	30.248 
05:45	5.2	5.2	5.2	83	1.2	0	0	---	0.00	30.252 
05:50	5.2	5.2	5.2	83	1.2	0	0	---	0.00	30.252 
05:55	5.0	5.0	5.0	83	1.0	0	0	---	0.00	30.252 
06:00	4.8	4.8	4.8	83	0.8	0	0	---	0.00	30.260 
06:05	4.8	4.8	4.8	83	0.8	0	0	---	0.00	30.260 
06:10	4.8	4.8	4.8	83	0.8	0	0	---	0.00	30.260 
06:15	5.0	5.0	5.0	83	1.0	0	0	---	0.00	30.263 
06:20	5.0	5.0	5.0	83	1.0	0	0	---	0.00	30.263 
06:25	5.0	5.0	5.0	83	1.0	0	0	---	0.00	30.263 
06:30	4.8	4.8	4.8	83	0.8	0	0	---	0.00	30.264 
06:35	4.8	4.8	4.8	83	0.8	0	0	---	0.00	30.264 
06:40	4.7	4.7	4.7	83	0.7	0	0	---	0.00	30.264 
06:45	4.7	4.7	4.7	83	0.7	0	0	---	0.00	30.266 
06:50	4.7	4.7	4.7	83	0.7	0	0	---	0.00	30.266 
06:55	4.7	4.7	4.7	83	0.7	0	0	---	0.00	30.266 
07:00	4.5	4.5	4.5	83	0.5	0	0	---	0.00	30.275 
07:05	4.5	4.5	4.5	83	0.5	0	0	---	0.00	30.275 
07:10	4.5	4.5	4.5	83	0.5	0	0	---	0.00	30.275 
07:15	4.7	4.7	4.7	83	0.7	0	0	---	0.00	30.284 
07:20	4.8	4.8	4.8	83	0.8	0	0	---	0.00	30.284 
07:25	4.8	4.8	4.8	84	1.0	0	0	---	0.00	30.284 
07:30	4.8	4.8	4.8	83	0.8	0	0	---	0.00	30.290 
07:35	4.8	4.8	4.8	83	0.8	0	0	---	0.00	30.290 
07:40	4.8	4.8	4.8	83	0.8	0	0	---	0.00	30.290 
07:45	4.8	4.8	4.8	83	0.8	0	0	---	0.00	30.297 
07:50	4.7	4.7	4.7	83	0.7	0	0	---	0.00	30.297 
07:55	4.7	4.7	4.7	83	0.7	0	0	---	0.00	30.297 
08:00	4.8	4.8	4.8	83	0.8	0	0	---	0.00	30.297 
08:05	4.8	4.8	4.8	83	0.8	0	0	---	0.00	30.297 
08:10	5.0	5.0	5.0	84	1.2	0	0	---	0.00	30.297 
08:15	5.4	5.4	5.4	84	1.6	0	0	---	0.00	30.304 
08:20	5.8	5.8	5.8	84	2.0	0	0	---	0.00	30.304 
08:25	6.0	6.0	6.0	84	2.2	0	0	---	0.00	30.304 
08:30	6.3	6.3	6.3	84	2.5	0	0	---	0.00	30.306 
08:35	6.9	6.9	6.9	85	3.4	0	0	---	0.00	30.306 
08:40	7.4	7.4	7.4	85	3.9	0	0	---	0.00	30.306 
08:45	7.9	7.9	7.9	85	4.3	0	0	---	0.00	30.314 
08:50	8.4	8.4	8.4	86	5.1	0	0	---	0.00	30.314 
08:55	9.2	9.2	9.2	86	5.9	0	0	---	0.00	30.314 
09:00	10.0	10.0	10.0	86	6.7	0	0	---	0.00	30.315 
09:05	10.7	10.7	10.7	87	7.6	0	0	---	0.00	30.315 
09:10	11.4	11.4	11.4	87	8.3	0	0	---	0.00	30.315 
09:15	11.9	11.9	11.9	87	8.8	0	0	---	0.00	30.321 
09:20	12.6	12.6	12.6	87	9.5	0	0	---	0.00	30.321 
09:25	13.1	13.1	13.1	87	10.0	0	0	---	0.00	30.321 
09:30	14.0	14.0	14.0	88	11.1	0	0	---	0.00	30.321 
09:35	15.1	15.1	15.1	88	12.2	0	1	90	0.00	30.321 
09:40	16.5	16.5	16.5	88	13.6	0	0	---	0.00	30.321 
09:45	17.3	17.3	17.3	84	13.3	0	2	90	0.00	30.320 
09:50	18.1	18.1	18.1	84	14.1	0	1	90	0.00	30.320 
09:55	18.6	18.6	18.6	82	14.0	0	1	90	0.00	30.320 
10:00	18.9	18.9	18.9	80	13.8	1	2	90	0.00	30.318 
10:05	18.9	18.9	18.9	80	13.8	0	2	90	0.00	30.318 
10:10	19.1	19.1	19.1	79	13.7	0	2	90	0.00	30.318 
10:15	20.0	20.0	20.0	79	14.6	0	1	90	0.00	30.322 
10:20	21.0	21.0	21.0	76	14.6	0	2	90	0.00	30.322 
10:25	21.1	21.1	21.1	75	14.4	1	3	90	0.00	30.322 
10:30	21.3	21.3	21.3	73	14.0	0	2	90	0.00	30.320 
10:35	21.4	21.4	21.4	73	14.1	0	2	90	0.00	30.320 
10:40	21.3	21.3	21.3	73	14.0	1	3	90	0.00	30.320 
10:45	21.4	21.4	21.4	73	14.1	0	2	90	0.00	30.317 
10:50	21.6	21.6	21.6	73	14.3	1	3	90	0.00	30.317 
10:55	21.9	21.9	21.9	72	14.3	1	3	90	0.00	30.317 
11:00	21.8	21.8	21.8	72	14.2	1	3	90	0.00	30.312 
11:05	21.8	21.8	21.8	73	14.5	1	4	90	0.00	30.312 
11:10	21.6	21.6	21.6	73	14.3	2	5	90	0.00	30.312 
11:15	21.8	21.8	21.8	74	14.8	1	3	90	0.00	30.309 
11:20	21.9	21.9	21.9	74	14.9	2	5	90	0.00	30.309 
11:25	22.2	22.2	22.2	74	15.2	2	5	90	0.00	30.309 
11:30	22.2	22.2	22.2	74	15.2	1	3	112	0.00	30.306 
11:35	22.2	22.2	22.2	73	14.9	2	5	90	0.00	30.306 
11:40	21.9	21.9	21.9	74	14.9	2	6	112	0.00	30.306 
11:45	21.8	21.8	21.8	75	15.1	2	6	112	0.00	30.301 
11:50	21.8	21.8	21.8	74	14.8	3	7	112	0.00	30.301 
11:55	21.6	21.6	21.6	76	15.2	3	5	112	0.00	30.301 
12:00	21.9	21.9	21.9	76	15.5	2	6	112	0.00	30.293 
12:05	21.8	21.8	21.8	75	15.1	2	5	112	0.00	30.293 
12:10	22.1	22.1	22.1	75	15.4	2	6	112	0.00	30.293 
12:15	21.9	21.9	21.9	74	14.9	3	5	112	0.00	30.290 
12:20	21.9	21.9	21.9	75	15.2	3	7	112	0.00	30.290 
12:25	22.1	22.1	22.1	73	14.8	3	6	90	0.00	30.290 
12:30	22.4	22.4	22.4	74	15.4	2	5	112	0.00	30.280 
12:35	22.5	22.5	22.5	73	15.2	3	7	90	0.00	30.280 
12:40	22.7	22.7	22.7	73	15.4	2	5	112	0.00	30.280 
12:45	22.9	22.9	22.9	73	15.6	3	6	90	0.00	30.276 
12:50	23.0	23.0	23.0	72	15.3	3	6	112	0.00	30.276 
12:55	22.9	17.6	22.9	71	14.9	4	10	112	0.00	30.276 
13:00	23.2	23.2	23.2	71	15.2	2	9	112	0.00	30.272 
13:05	23.3	23.3	23.3	71	15.3	2	5	112	0.00	30.272 
13:10	23.3	23.3	23.3	70	15.0	3	9	90	0.00	30.272 
13:15	23.6	23.6	23.6	71	15.6	2	6	90	0.00	30.262 
13:20	23.8	23.8	23.8	72	16.1	2	5	90	0.00	30.262 
13:25	23.8	18.6	23.8	69	15.1	4	9	112	0.00	30.262 
13:30	23.9	23.9	23.9	70	15.6	2	4	112	0.00	30.259 
13:35	23.9	23.9	23.9	69	15.2	2	5	112	0.00	30.259 
13:40	23.9	23.9	23.9	68	14.9	3	9	90	0.00	30.259 
13:45	23.9	23.9	23.9	68	14.9	2	5	90	0.00	30.252 
13:50	24.1	24.1	24.1	68	15.1	2	5	112	0.00	30.252 
13:55	24.1	24.1	24.1	68	15.1	3	5	112	0.00	30.252 
14:00	24.2	24.2	24.2	68	15.2	2	4	90	0.00	30.245 
14:05	24.4	24.4	24.4	68	15.4	1	4	112	0.00	30.245 
14:10	24.4	24.4	24.4	69	15.7	3	9	112	0.00	30.245 
14:15	24.2	24.2	24.2	67	14.8	3	7	112	0.00	30.244 
14:20	24.2	24.2	24.2	67	14.8	3	6	90	0.00	30.244 
14:25	24.4	24.4	24.4	67	15.0	2	6	112	0.00	30.244 
14:30	24.5	24.5	24.5	66	14.8	3	9	90	0.00	30.243 
14:35	24.7	24.7	24.7	66	15.0	2	5	90	0.00	30.243 
14:40	24.7	24.7	24.7	66	15.0	2	6	112	0.00	30.243 
14:45	24.8	24.8	24.8	65	14.7	3	7	112	0.00	30.244 
14:50	24.8	24.8	24.8	65	14.7	3	5	90	0.00	30.244 
14:55	25.0	25.0	25.0	65	14.9	2	5	90	0.00	30.244 
15:00	25.1	25.1	25.1	66	15.4	3	7	90	0.00	30.243 
15:05	25.3	25.3	25.3	65	15.2	3	7	112	0.00	30.243 
15:10	25.4	20.5	25.4	64	14.9	4	6	90	0.00	30.243 
15:15	25.3	25.3	25.3	65	15.2	3	7	90	0.00	30.230 
15:20	25.3	20.3	25.3	64	14.9	4	7	112	0.00	30.230 
15:25	25.1	20.1	25.1	64	14.7	4	8	90	0.00	30.230 
15:30	25.0	20.0	25.0	65	14.9	4	9	112	0.00	30.226 
15:35	25.3	25.3	25.3	65	15.2	2	6	112	0.00	30.226 
15:40	25.3	25.3	25.3	66	15.6	3	7	112	0.00	30.226 
15:45	25.3	25.3	25.3	65	15.2	2	6	90	0.00	30.225 
15:50	25.4	25.4	25.4	64	14.9	3	6	90	0.00	30.225 
15:55	25.4	25.4	25.4	64	14.9	3	9	90	0.00	30.225 
16:00	25.3	20.3	25.3	67	15.9	4	9	90	0.00	30.220 
16:05	25.3	20.3	25.3	62	14.1	4	9	90	0.00	30.220 
16:10	25.3	25.3	25.3	61	13.8	3	9	112	0.00	30.220 
16:15	25.3	25.3	25.3	61	13.8	3	6	90	0.00	30.223 
16:20	25.4	25.4	25.4	62	14.2	2	5	90	0.00	30.223 
16:25	25.4	19.3	25.4	61	13.9	5	10	112	0.00	30.223 
16:30	25.3	25.3	25.3	61	13.8	3	7	112	0.00	30.234 
16:35	25.3	25.3	25.3	60	13.4	1	4	90	0.00	30.234 
16:40	25.1	25.1	25.1	61	13.6	2	5	90	0.00	30.234 
16:45	24.8	24.8	24.8	62	13.7	2	7	112	0.00	30.249 
16:50	24.7	24.7	24.7	61	13.2	3	7	112	0.00	30.249 
16:55	24.5	24.5	24.5	61	13.0	3	7	112	0.00	30.249 
17:00	24.4	24.4	24.4	61	12.9	3	6	90	0.00	30.245 
17:05	24.4	24.4	24.4	62	13.3	3	6	90	0.00	30.245 
17:10	24.4	24.4	24.4	62	13.3	3	5	90	0.00	30.245 
17:15	24.2	24.2	24.2	62	13.1	3	6	112	0.00	30.238 
17:20	24.1	24.1	24.1	62	13.0	2	5	90	0.00	30.238 
17:25	24.1	24.1	24.1	63	13.4	3	6	90	0.00	30.238 
17:30	24.1	24.1	24.1	63	13.4	2	6	90	0.00	30.232 
17:35	23.9	23.9	23.9	63	13.2	3	8	112	0.00	30.232 
17:40	23.8	23.8	23.8	64	13.4	2	5	90	0.00	30.232 
17:45	23.6	23.6	23.6	65	13.6	2	4	90	0.00	30.229 
17:50	23.6	23.6	23.6	65	13.6	1	3	90	0.00	30.229 
17:55	23.5	23.5	23.5	65	13.5	2	5	90	0.00	30.229 
18:00	23.3	23.3	23.3	65	13.3	2	5	90	0.00	30.229 
18:05	23.2	23.2	23.2	65	13.2	2	5	90	0.00	30.229 
18:10	23.0	23.0	23.0	64	12.7	1	4	112	0.00	30.229 
18:15	22.9	22.9	22.9	64	12.6	1	2	90	0.00	30.219 
18:20	22.7	22.7	22.7	65	12.7	1	2	90	0.00	30.219 
18:25	22.5	22.5	22.5	66	12.9	0	2	90	0.00	30.219 
18:30	22.4	22.4	22.4	67	13.1	0	1	90	0.00	30.232 
18:35	22.2	22.2	22.2	67	12.9	0	1	90	0.00	30.232 
18:40	22.1	22.1	22.1	68	13.2	0	2	90	0.00	30.232 
18:45	21.9	21.9	21.9	68	13.0	1	3	90	0.00	30.234 
18:50	21.9	21.9	21.9	68	13.0	1	3	90	0.00	30.234 
18:55	21.9	21.9	21.9	68	13.0	0	2	90	0.00	30.234 
19:00	21.8	21.8	21.8	69	13.2	1	2	90	0.00	30.241 
19:05	21.8	21.8	21.8	69	13.2	1	3	90	0.00	30.241 
19:10	21.8	21.8	21.8	70	13.5	0	2	112	0.00	30.241 
19:15	21.6	21.6	21.6	71	13.7	1	2	112	0.00	30.240 
19:20	21.4	21.4	21.4	71	13.5	0	2	112	0.00	30.240 
19:25	21.3	21.3	21.3	72	13.7	1	3	112	0.00	30.240 
19:30	21.1	21.1	21.1	72	13.5	2	4	112	0.00	30.236 
19:35	21.1	21.1	21.1	72	13.5	1	3	90	0.00	30.236 
19:40	21.0	21.0	21.0	72	13.4	1	3	90	0.00	30.236 
19:45	21.0	21.0	21.0	73	13.7	1	4	90	0.00	30.232 
19:50	20.8	20.8	20.8	73	13.5	1	2	90	0.00	30.232 
19:55	20.8	20.8	20.8	73	13.5	1	4	90	0.00	30.232 
20:00	20.8	20.8	20.8	74	13.8	1	4	90	0.00	30.228 
20:05	20.8	20.8	20.8	74	13.8	2	5	90	0.00	30.228 
20:10	20.8	20.8	20.8	74	13.8	1	5	112	0.00	30.228 
20:15	20.8	20.8	20.8	74	13.8	1	4	112	0.00	30.218 
20:20	20.8	20.8	20.8	74	13.8	2	5	90	0.00	30.218 
20:25	20.8	20.8	20.8	74	13.8	2	3	90	0.00	30.218 
20:30	20.8	20.8	20.8	74	13.8	2	4	90	0.00	30.215 
20:35	20.8	20.8	20.8	73	13.5	2	5	90	0.00	30.215 
20:40	20.8	20.8	20.8	73	13.5	1	3	90	0.00	30.215 
20:45	21.0	21.0	21.0	73	13.7	1	4	90	0.00	30.221 
20:50	21.0	21.0	21.0	73	13.7	2	4	112	0.00	30.221 
20:55	21.1	21.1	21.1	73	13.8	2	7	90	0.00	30.221 
21:00	21.3	21.3	21.3	73	14.0	2	6	90	0.00	30.217 
21:05	21.3	21.3	21.3	74	14.3	2	5	90	0.00	30.217 
21:10	21.3	21.3	21.3	74	14.3	2	7	90	0.00	30.217 
21:15	21.3	21.3	21.3	75	14.6	1	4	90	0.00	30.205 
21:20	21.3	21.3	21.3	75	14.6	1	3	90	0.00	30.205 
21:25	21.3	21.3	21.3	76	14.9	2	3	90	0.00	30.205 
21:30	21.3	21.3	21.3	76	14.9	2	6	90	0.00	30.203 
21:35	21.3	21.3	21.3	76	14.9	2	6	90	0.00	30.203 
21:40	21.3	21.3	21.3	76	14.9	2	5	90	0.00	30.203 
21:45	21.3	21.3	21.3	76	14.9	2	5	90	0.00	30.204 
21:50	21.3	21.3	21.3	76	14.9	2	5	90	0.00	30.204 
21:55	21.3	21.3	21.3	76	14.9	2	5	90	0.00	30.204 
22:00	21.3	21.3	21.3	75	14.6	2	5	112	0.00	30.204 
22:05	21.3	21.3	21.3	76	14.9	2	4	135	0.00	30.204 
22:10	21.4	21.4	21.4	75	14.7	3	6	112	0.00	30.204 
22:15	21.4	21.4	21.4	75	14.7	2	4	112	0.00	30.197 
22:20	21.4	21.4	21.4	75	14.7	3	6	112	0.00	30.197 
22:25	21.4	21.4	21.4	75	14.7	2	5	112	0.00	30.197 
22:30	21.4	21.4	21.4	76	15.0	2	6	90	0.00	30.187 
22:35	21.3	21.3	21.3	75	14.6	2	5	112	0.00	30.187 
22:40	21.3	21.3	21.3	74	14.3	3	7	90	0.00	30.187 
22:45	21.3	21.3	21.3	74	14.3	2	5	90	0.00	30.184 
22:50	21.3	21.3	21.3	74	14.3	1	4	90	0.00	30.184 
22:55	21.3	21.3	21.3	72	13.7	2	7	90	0.00	30.184 
23:00	21.4	21.4	21.4	72	13.8	1	5	112	0.00	30.176 
23:05	21.4	21.4	21.4	72	13.8	2	5	90	0.00	30.176 
23:10	21.4	21.4	21.4	72	13.8	2	6	112	0.00	30.176 
23:15	21.4	21.4	21.4	72	13.8	2	6	90	0.00	30.171 
23:20	21.4	21.4	21.4	72	13.8	2	5	112	0.00	30.171 
23:25	21.4	21.4	21.4	72	13.8	2	5	90	0.00	30.171 
23:30	21.4	21.4	21.4	72	13.8	2	5	90	0.00	30.168 
23:35	21.4	21.4	21.4	72	13.8	2	6	90	0.00	30.168 
23:40	21.4	21.4	21.4	72	13.8	2	4	90	0.00	30.168 
23:45	21.4	21.4	21.4	72	13.8	3	6	90	0.00	30.163 
23:50	21.4	21.4	21.4	72	13.8	2	4	90	0.00	30.163 
23:55	21.6	21.6	21.6	72	14.0	2	4	90	0.00	30.163 

CoCoRaHS
IN-AL-39
A2 Web Hosting
Creative Commons License
GoDaddy
search engine by freefind advanced

loaded 2018-11-16 23:21:49 • last modified 2010-11-18 10:43:29
Privacy PolicyDisclaimer
• wx.awcolley.com is powered by PmWiki v.2002016 •
• all content (unless otherwise noted) © 2018 A W Colley